createdAt,value
2023-08-09T00:00:00.603Z,2.40
2023-08-09T00:01:00.616Z,2.30
2023-08-09T00:02:00.569Z,2.50
2023-08-09T00:03:00.598Z,2.40
2023-08-09T00:04:00.653Z,2.70
2023-08-09T00:05:00.591Z,2.70
2023-08-09T00:06:00.580Z,2.40
2023-08-09T00:07:00.878Z,2.60
2023-08-09T00:08:00.536Z,2.30
2023-08-09T00:09:00.520Z,2.40
2023-08-09T00:10:00.556Z,2.50
2023-08-09T00:11:00.500Z,2.40
2023-08-09T00:12:00.502Z,2.50
2023-08-09T00:13:00.498Z,2.20
2023-08-09T00:14:00.478Z,2.30
2023-08-09T00:15:00.487Z,2.60
2023-08-09T00:16:01.532Z,2.30
2023-08-09T00:17:00.762Z,2.20
2023-08-09T00:18:00.524Z,2.40
2023-08-09T00:19:00.470Z,2.60
2023-08-09T00:20:00.460Z,2.60
2023-08-09T00:21:00.424Z,2.80
2023-08-09T00:22:00.415Z,2.70
2023-08-09T00:23:00.421Z,2.70
2023-08-09T00:24:00.417Z,2.70
2023-08-09T00:25:00.398Z,2.90
2023-08-09T00:26:00.385Z,2.70
2023-08-09T00:27:00.496Z,3.10
2023-08-09T00:28:00.396Z,2.60
2023-08-09T00:29:00.393Z,2.40
2023-08-09T00:30:00.358Z,2.30
2023-08-09T00:31:00.344Z,2.90
2023-08-09T00:32:00.367Z,3.00
2023-08-09T00:33:00.391Z,2.70
2023-08-09T00:34:00.353Z,2.50
2023-08-09T00:35:00.335Z,2.60
2023-08-09T00:36:00.312Z,2.30
2023-08-09T00:37:00.522Z,2.60
2023-08-09T00:38:00.322Z,2.20
2023-08-09T00:39:00.286Z,2.30
2023-08-09T00:40:00.276Z,2.60
2023-08-09T00:41:00.265Z,2.80
2023-08-09T00:42:00.275Z,2.60
2023-08-09T00:43:00.274Z,2.80
2023-08-09T00:44:00.249Z,2.30
2023-08-09T00:45:00.237Z,2.90
2023-08-09T00:46:00.265Z,2.70
2023-08-09T00:47:00.579Z,2.60
2023-08-09T00:48:00.295Z,2.90
2023-08-09T00:49:00.205Z,2.50
2023-08-09T00:50:00.204Z,2.70
2023-08-09T00:51:00.206Z,3.10
2023-08-09T00:52:00.209Z,3.10
2023-08-09T00:53:00.205Z,2.90
2023-08-09T00:54:00.183Z,2.70
2023-08-09T00:55:00.242Z,3.10
2023-08-09T00:56:00.153Z,2.70
2023-08-09T00:57:00.471Z,3.10
2023-08-09T00:58:00.138Z,2.70
2023-08-09T00:59:00.219Z,3.20
2023-08-09T01:00:01.157Z,3.00
2023-08-09T01:01:00.153Z,2.70
2023-08-09T01:02:00.143Z,2.70
2023-08-09T01:03:00.185Z,3.10
2023-08-09T01:04:00.101Z,2.80
2023-08-09T01:05:00.112Z,3.10
2023-08-09T01:06:00.105Z,2.80
2023-08-09T01:07:00.437Z,3.10
2023-08-09T01:08:00.056Z,2.80
2023-08-09T01:09:00.052Z,2.90
2023-08-09T01:10:00.128Z,3.20
2023-08-09T01:11:00.061Z,3.20
2023-08-09T01:12:00.057Z,2.90
2023-08-09T01:13:00.017Z,2.70
2023-08-09T01:14:00.009Z,2.80
2023-08-09T01:14:59.995Z,2.70
2023-08-09T01:16:01.076Z,3.00
2023-08-09T01:17:00.514Z,2.90
2023-08-09T01:18:00.008Z,2.60
2023-08-09T01:18:59.971Z,3.30
2023-08-09T01:19:59.955Z,3.00
2023-08-09T01:20:59.980Z,2.80
2023-08-09T01:21:59.941Z,3.10
2023-08-09T01:22:59.941Z,3.30
2023-08-09T01:23:59.935Z,2.70
2023-08-09T01:24:59.985Z,3.00
2023-08-09T01:25:59.941Z,3.30
2023-08-09T01:27:00.329Z,3.00
2023-08-09T01:27:59.906Z,3.10
2023-08-09T01:28:59.889Z,3.10
2023-08-09T01:29:59.928Z,3.00
2023-08-09T01:30:59.908Z,2.90
2023-08-09T01:31:59.877Z,2.60
2023-08-09T01:32:59.924Z,2.70
2023-08-09T01:33:59.906Z,2.80
2023-08-09T01:34:59.880Z,3.10
2023-08-09T01:35:59.838Z,2.60
2023-08-09T01:37:00.063Z,2.80
2023-08-09T01:37:59.820Z,2.70
2023-08-09T01:38:59.824Z,2.70
2023-08-09T01:39:59.829Z,2.50
2023-08-09T01:40:59.817Z,2.70
2023-08-09T01:41:59.792Z,2.90
2023-08-09T01:42:59.794Z,2.80
2023-08-09T01:43:59.800Z,3.00
2023-08-09T01:44:59.787Z,2.80
2023-08-09T01:45:59.782Z,2.70
2023-08-09T01:47:00.006Z,2.60
2023-08-09T01:47:59.791Z,2.60
2023-08-09T01:48:59.751Z,3.00
2023-08-09T01:49:59.984Z,2.80
2023-08-09T01:50:59.708Z,2.80
2023-08-09T01:51:59.715Z,2.80
2023-08-09T01:52:59.779Z,2.70
2023-08-09T01:53:59.756Z,2.70
2023-08-09T01:54:59.687Z,2.80
2023-08-09T01:55:59.681Z,2.40
2023-08-09T01:57:00.027Z,2.80
2023-08-09T01:57:59.663Z,2.80
2023-08-09T01:58:59.686Z,2.70
2023-08-09T01:59:59.643Z,2.80
2023-08-09T02:00:59.677Z,2.70
2023-08-09T02:01:59.681Z,2.60
2023-08-09T02:02:59.681Z,2.80
2023-08-09T02:03:59.652Z,2.70
2023-08-09T02:04:59.610Z,3.00
2023-08-09T02:05:59.607Z,2.90
2023-08-09T02:06:59.849Z,3.10
2023-08-09T02:07:59.622Z,2.60
2023-08-09T02:08:59.591Z,2.70
2023-08-09T02:09:59.585Z,2.70
2023-08-09T02:10:59.570Z,2.90
2023-08-09T02:11:59.558Z,3.00
2023-08-09T02:12:59.603Z,2.90
2023-08-09T02:13:59.543Z,2.80
2023-08-09T02:14:59.539Z,2.90
2023-08-09T02:15:59.528Z,2.60
2023-08-09T02:17:00.198Z,2.80
2023-08-09T02:17:59.632Z,2.70
2023-08-09T02:18:59.509Z,2.30
2023-08-09T02:19:59.496Z,2.20
2023-08-09T02:20:59.485Z,2.30
2023-08-09T02:21:59.506Z,2.70
2023-08-09T02:22:59.479Z,3.20
2023-08-09T02:23:59.472Z,2.90
2023-08-09T02:24:59.460Z,2.40
2023-08-09T02:25:59.447Z,2.20
2023-08-09T02:26:59.736Z,2.20
2023-08-09T02:27:59.429Z,2.50
2023-08-09T02:28:59.423Z,2.30
2023-08-09T02:29:59.423Z,2.40
2023-08-09T02:30:59.440Z,2.70
2023-08-09T02:31:59.431Z,2.50
2023-08-09T02:32:59.454Z,2.70
2023-08-09T02:33:59.396Z,2.70
2023-08-09T02:34:59.371Z,2.50
2023-08-09T02:35:59.420Z,2.50
2023-08-09T02:36:59.643Z,2.40
2023-08-09T02:37:59.366Z,2.50
2023-08-09T02:38:59.358Z,2.40
2023-08-09T02:39:59.343Z,2.70
2023-08-09T02:40:59.361Z,2.30
2023-08-09T02:41:59.330Z,2.70
2023-08-09T02:42:59.347Z,2.80
2023-08-09T02:43:59.311Z,3.00
2023-08-09T02:44:59.308Z,2.60
2023-08-09T02:45:59.376Z,2.70
2023-08-09T02:46:59.540Z,2.80
2023-08-09T02:47:59.321Z,2.90
2023-08-09T02:48:59.271Z,2.70
2023-08-09T02:49:59.260Z,2.60
2023-08-09T02:50:59.280Z,2.60
2023-08-09T02:51:59.242Z,2.70
2023-08-09T02:52:59.235Z,2.60
2023-08-09T02:53:59.226Z,2.60
2023-08-09T02:54:59.251Z,2.80
2023-08-09T02:55:59.241Z,2.50
2023-08-09T02:56:59.330Z,2.70
2023-08-09T02:57:59.197Z,2.80
2023-08-09T02:58:59.197Z,2.60
2023-08-09T02:59:59.207Z,2.80
2023-08-09T03:00:59.173Z,2.60
2023-08-09T03:01:59.218Z,2.90
2023-08-09T03:02:59.213Z,2.70
2023-08-09T03:03:59.204Z,2.70
2023-08-09T03:04:59.167Z,2.50
2023-08-09T03:05:59.135Z,2.60
2023-08-09T03:06:59.463Z,2.80
2023-08-09T03:07:59.117Z,2.70
2023-08-09T03:08:59.109Z,2.60
2023-08-09T03:09:59.133Z,2.40
2023-08-09T03:10:59.092Z,2.40
2023-08-09T03:11:59.082Z,2.90
2023-08-09T03:12:59.073Z,3.00
2023-08-09T03:13:59.060Z,2.60
2023-08-09T03:14:59.085Z,2.60
2023-08-09T03:15:59.073Z,2.70
2023-08-09T03:16:59.030Z,2.70
2023-08-09T03:18:00.092Z,2.70
2023-08-09T03:18:59.023Z,2.80
2023-08-09T03:19:59.040Z,2.60
2023-08-09T03:20:59.011Z,3.40
2023-08-09T03:21:59.019Z,2.80
2023-08-09T03:22:58.999Z,3.00
2023-08-09T03:23:59.021Z,2.60
2023-08-09T03:24:59.014Z,2.40
2023-08-09T03:25:58.985Z,2.00
2023-08-09T03:26:59.004Z,1.90
2023-08-09T03:27:58.960Z,0.90
2023-08-09T03:28:58.980Z,0.20
2023-08-09T03:29:58.948Z,0.20
2023-08-09T03:30:58.939Z,0.30
2023-08-09T03:31:58.956Z,0.30
2023-08-09T03:32:58.948Z,0.40
2023-08-09T03:33:58.952Z,0.20
2023-08-09T03:34:58.914Z,0.20
2023-08-09T03:35:58.897Z,0.10
2023-08-09T03:36:58.983Z,0.20
2023-08-09T03:37:58.911Z,0.20
2023-08-09T03:38:59.920Z,0.20
2023-08-09T03:39:58.862Z,0.20
2023-08-09T03:40:58.864Z,0.10
2023-08-09T03:41:58.857Z,0.20
2023-08-09T03:42:58.902Z,0.20
2023-08-09T03:43:58.833Z,0.10
2023-08-09T03:44:58.825Z,0.20
2023-08-09T03:45:58.853Z,0.20
2023-08-09T03:46:58.826Z,0.10
2023-08-09T03:47:58.847Z,0.20
2023-08-09T03:48:58.802Z,0.10
2023-08-09T03:49:58.784Z,0.20
2023-08-09T03:50:58.805Z,0.20
2023-08-09T03:51:58.782Z,0.20
2023-08-09T03:52:58.807Z,0.20
2023-08-09T03:53:58.753Z,0.30
2023-08-09T03:54:58.764Z,0.20
2023-08-09T03:55:58.743Z,0.20
2023-08-09T03:56:58.763Z,0.30
2023-08-09T03:57:58.756Z,0.10
2023-08-09T03:58:58.731Z,0.20
2023-08-09T03:59:58.710Z,0.20
2023-08-09T04:00:58.738Z,0.20
2023-08-09T04:01:58.763Z,0.20
2023-08-09T04:02:58.737Z,0.20
2023-08-09T04:03:58.683Z,0.30
2023-08-09T04:04:58.698Z,0.40
2023-08-09T04:05:58.677Z,0.20
2023-08-09T04:06:58.685Z,0.30
2023-08-09T04:07:58.672Z,0.30
2023-08-09T04:08:58.641Z,0.20
2023-08-09T04:09:58.632Z,0.20
2023-08-09T04:10:58.653Z,0.20
2023-08-09T04:11:58.639Z,0.30
2023-08-09T04:12:58.624Z,0.30
2023-08-09T04:13:58.615Z,0.30
2023-08-09T04:14:58.595Z,0.30
2023-08-09T04:15:58.639Z,0.20
2023-08-09T04:16:58.592Z,0.30
2023-08-09T04:17:58.640Z,0.20
2023-08-09T04:18:58.557Z,0.30
2023-08-09T04:19:58.553Z,0.30
2023-08-09T04:20:58.568Z,0.30
2023-08-09T04:21:59.027Z,0.30
2023-08-09T04:22:58.533Z,0.40
2023-08-09T04:23:58.540Z,0.30
2023-08-09T04:24:58.521Z,0.20
2023-08-09T04:25:58.538Z,0.30
2023-08-09T04:26:58.506Z,0.30
2023-08-09T04:27:58.503Z,0.30
2023-08-09T04:28:58.499Z,0.40
2023-08-09T04:29:58.518Z,0.20
2023-08-09T04:30:58.494Z,0.30
2023-08-09T04:31:58.463Z,0.20
2023-08-09T04:32:58.480Z,0.50
2023-08-09T04:33:58.459Z,0.30
2023-08-09T04:34:58.482Z,0.40
2023-08-09T04:35:58.428Z,0.40
2023-08-09T04:36:58.430Z,0.50
2023-08-09T04:37:58.421Z,0.50
2023-08-09T04:38:58.409Z,0.40
2023-08-09T04:39:58.428Z,0.70
2023-08-09T04:40:58.396Z,0.40
2023-08-09T04:41:58.386Z,0.50
2023-08-09T04:42:58.379Z,0.50
2023-08-09T04:43:58.526Z,0.50
2023-08-09T04:44:58.386Z,0.50
2023-08-09T04:45:58.395Z,0.50
2023-08-09T04:46:58.344Z,0.60
2023-08-09T04:47:58.361Z,0.40
2023-08-09T04:48:58.374Z,0.40
2023-08-09T04:49:58.320Z,0.70
2023-08-09T04:50:58.318Z,0.50
2023-08-09T04:51:58.304Z,0.70
2023-08-09T04:52:58.310Z,0.60
2023-08-09T04:53:58.325Z,0.60
2023-08-09T04:54:58.292Z,0.60
2023-08-09T04:55:58.274Z,0.50
2023-08-09T04:56:58.265Z,0.40
2023-08-09T04:57:58.283Z,0.60
2023-08-09T04:58:58.290Z,0.60
2023-08-09T04:59:58.253Z,0.70
2023-08-09T05:00:58.256Z,0.80
2023-08-09T05:01:58.241Z,0.70
2023-08-09T05:02:58.310Z,0.50
2023-08-09T05:03:58.242Z,0.80
2023-08-09T05:04:58.246Z,0.50
2023-08-09T05:05:58.208Z,0.50
2023-08-09T05:06:58.204Z,0.60
2023-08-09T05:07:58.220Z,0.50
2023-08-09T05:08:58.183Z,0.70
2023-08-09T05:09:58.172Z,0.50
2023-08-09T05:10:58.162Z,0.40
2023-08-09T05:11:58.151Z,0.60
2023-08-09T05:12:58.173Z,0.60
2023-08-09T05:13:58.144Z,0.60
2023-08-09T05:14:58.135Z,0.60
2023-08-09T05:15:58.117Z,0.70
2023-08-09T05:16:58.209Z,0.60
2023-08-09T05:17:58.192Z,0.60
2023-08-09T05:18:58.099Z,0.60
2023-08-09T05:19:58.127Z,0.40
2023-08-09T05:20:58.084Z,0.70
2023-08-09T05:21:58.101Z,0.60
2023-08-09T05:22:58.095Z,0.50
2023-08-09T05:23:58.060Z,0.70
2023-08-09T05:24:58.048Z,0.60
2023-08-09T05:25:58.049Z,0.80
2023-08-09T05:26:58.054Z,0.40
2023-08-09T05:27:58.043Z,0.50
2023-08-09T05:28:58.016Z,0.50
2023-08-09T05:29:58.004Z,0.40
2023-08-09T05:30:58.046Z,0.60
2023-08-09T05:31:58.018Z,0.40
2023-08-09T05:32:58.058Z,0.40
2023-08-09T05:33:57.977Z,0.40
2023-08-09T05:34:57.975Z,0.40
2023-08-09T05:35:57.963Z,0.40
2023-08-09T05:36:57.978Z,0.40
2023-08-09T05:37:57.948Z,0.30
2023-08-09T05:38:57.944Z,0.30
2023-08-09T05:39:57.925Z,0.20
2023-08-09T05:40:57.947Z,0.30
2023-08-09T05:41:57.944Z,0.30
2023-08-09T05:42:57.904Z,0.20
2023-08-09T05:43:57.898Z,0.30
2023-08-09T05:44:57.894Z,0.30
2023-08-09T05:45:57.911Z,0.30
2023-08-09T05:46:57.888Z,0.20
2023-08-09T05:47:57.943Z,0.70
2023-08-09T05:48:58.865Z,0.20
2023-08-09T05:49:57.861Z,0.20
2023-08-09T05:50:57.872Z,0.30
2023-08-09T05:51:57.846Z,0.20
2023-08-09T05:52:57.850Z,0.30
2023-08-09T05:53:57.833Z,0.30
2023-08-09T05:54:57.821Z,0.30
2023-08-09T05:55:57.838Z,0.40
2023-08-09T05:56:57.834Z,0.30
2023-08-09T05:57:57.802Z,0.20
2023-08-09T05:59:00.681Z,0.30
2023-08-09T05:59:57.805Z,0.20
2023-08-09T06:00:57.849Z,0.20
2023-08-09T06:01:57.848Z,0.30
2023-08-09T06:02:58.828Z,0.20
2023-08-09T06:03:57.882Z,0.30
2023-08-09T06:04:57.769Z,0.40
2023-08-09T06:05:57.757Z,0.30
2023-08-09T06:06:57.786Z,0.30
2023-08-09T06:07:57.727Z,0.40
2023-08-09T06:08:57.704Z,0.30
2023-08-09T06:09:58.731Z,0.40
2023-08-09T06:10:57.700Z,0.30
2023-08-09T06:11:57.710Z,0.40
2023-08-09T06:12:59.886Z,0.40
2023-08-09T06:13:57.680Z,0.40
2023-08-09T06:14:57.699Z,0.30
2023-08-09T06:15:57.669Z,0.30
2023-08-09T06:16:57.716Z,0.40
2023-08-09T06:17:57.665Z,0.40
2023-08-09T06:18:57.672Z,0.30
2023-08-09T06:19:57.670Z,0.40
2023-08-09T06:20:57.629Z,0.40
2023-08-09T06:21:57.620Z,0.40
2023-08-09T06:22:57.618Z,0.40
2023-08-09T06:23:57.637Z,0.40
2023-08-09T06:24:57.616Z,0.40
2023-08-09T06:25:58.595Z,0.40
2023-08-09T06:26:57.609Z,0.50
2023-08-09T06:27:57.585Z,0.30
2023-08-09T06:28:57.600Z,0.40
2023-08-09T06:29:57.566Z,0.40
2023-08-09T06:30:57.602Z,0.40
2023-08-09T06:31:58.553Z,0.30
2023-08-09T06:32:57.603Z,0.40
2023-08-09T06:33:57.570Z,0.40
2023-08-09T06:34:57.537Z,0.50
2023-08-09T06:35:57.522Z,0.30
2023-08-09T06:36:57.589Z,0.70
2023-08-09T06:38:09.522Z,0.40
2023-08-09T06:38:59.531Z,0.70
2023-08-09T06:39:57.501Z,0.40
2023-08-09T06:40:57.484Z,0.60
2023-08-09T06:41:57.488Z,0.40
2023-08-09T06:42:57.525Z,0.40
2023-08-09T06:43:57.470Z,0.70
2023-08-09T06:44:57.474Z,0.50
2023-08-09T06:45:57.481Z,0.40
2023-08-09T06:46:57.451Z,0.50
2023-08-09T06:47:57.575Z,0.40
2023-08-09T06:48:57.459Z,0.40
2023-08-09T06:49:57.437Z,0.50
2023-08-09T06:50:57.434Z,0.40
2023-08-09T06:51:57.501Z,0.50
2023-08-09T06:52:57.455Z,0.40
2023-08-09T06:53:57.410Z,0.50
2023-08-09T06:54:58.282Z,0.50
2023-08-09T06:55:57.393Z,0.50
2023-08-09T06:56:57.416Z,0.50
2023-08-09T06:57:57.375Z,0.60
2023-08-09T06:58:57.384Z,0.90
2023-08-09T06:59:57.372Z,0.50
2023-08-09T07:00:57.369Z,0.50
2023-08-09T07:01:57.443Z,0.50
2023-08-09T07:02:57.384Z,0.30
2023-08-09T07:03:57.377Z,0.50
2023-08-09T07:04:57.629Z,0.60
2023-08-09T07:05:57.320Z,0.40
2023-08-09T07:06:57.352Z,0.60
2023-08-09T07:07:58.301Z,0.40
2023-08-09T07:08:57.318Z,0.40
2023-08-09T07:09:57.303Z,0.50
2023-08-09T07:10:57.392Z,0.50
2023-08-09T07:11:57.311Z,0.60
2023-08-09T07:12:57.279Z,0.40
2023-08-09T07:13:57.270Z,0.40
2023-08-09T07:14:57.264Z,0.50
2023-08-09T07:15:57.306Z,0.50
2023-08-09T07:16:57.300Z,0.50
2023-08-09T07:17:57.285Z,0.50
2023-08-09T07:18:59.558Z,0.50
2023-08-09T07:19:58.237Z,0.50
2023-08-09T07:20:57.258Z,0.50
2023-08-09T07:21:57.222Z,0.50
2023-08-09T07:22:57.220Z,0.60
2023-08-09T07:23:58.265Z,0.60
2023-08-09T07:24:58.234Z,0.70
2023-08-09T07:25:57.228Z,0.60
2023-08-09T07:26:57.195Z,0.50
2023-08-09T07:27:57.192Z,0.60
2023-08-09T07:28:57.191Z,0.60
2023-08-09T07:29:57.237Z,0.50
2023-08-09T07:30:57.176Z,0.60
2023-08-09T07:31:57.277Z,0.50
2023-08-09T07:32:57.269Z,0.60
2023-08-09T07:33:57.157Z,0.40
2023-08-09T07:34:57.176Z,0.60
2023-08-09T07:35:57.153Z,0.50
2023-08-09T07:36:57.135Z,0.50
2023-08-09T07:37:57.139Z,0.80
2023-08-09T07:38:57.621Z,0.80
2023-08-09T07:39:57.138Z,0.50
2023-08-09T07:40:58.115Z,0.70
2023-08-09T07:41:57.121Z,1.40
2023-08-09T07:42:57.107Z,1.20
2023-08-09T07:43:57.125Z,1.20
2023-08-09T07:44:57.083Z,0.80
2023-08-09T07:45:57.107Z,0.70
2023-08-09T07:46:57.069Z,0.80
2023-08-09T07:47:57.114Z,1.00
2023-08-09T07:48:57.079Z,1.00
2023-08-09T07:49:57.052Z,0.60
2023-08-09T07:50:57.035Z,0.60
2023-08-09T07:51:57.031Z,0.60
2023-08-09T07:52:57.022Z,0.50
2023-08-09T07:53:57.041Z,0.40
2023-08-09T07:54:58.014Z,0.60
2023-08-09T07:55:57.005Z,0.60
2023-08-09T07:56:57.000Z,0.70
2023-08-09T07:57:57.017Z,0.60
2023-08-09T07:58:57.014Z,0.60
2023-08-09T08:00:03.443Z,0.60
2023-08-09T08:00:57.970Z,0.60
2023-08-09T08:01:56.993Z,0.70
2023-08-09T08:02:57.044Z,0.60
2023-08-09T08:03:57.018Z,0.40
2023-08-09T08:04:56.947Z,0.60
2023-08-09T08:05:56.935Z,0.50
2023-08-09T08:06:56.931Z,0.50
2023-08-09T08:07:56.949Z,0.90
2023-08-09T08:08:56.921Z,0.90
2023-08-09T08:09:56.910Z,0.50
2023-08-09T08:10:56.906Z,0.60
2023-08-09T08:12:00.286Z,0.70
2023-08-09T08:12:56.918Z,0.60
2023-08-09T08:13:56.896Z,0.50
2023-08-09T08:14:56.869Z,0.40
2023-08-09T08:15:56.903Z,0.40
2023-08-09T08:16:56.883Z,0.50
2023-08-09T08:17:56.877Z,0.30
2023-08-09T08:18:56.843Z,0.50
2023-08-09T08:19:59.199Z,0.50
2023-08-09T08:20:56.833Z,0.50
2023-08-09T08:21:56.854Z,0.50
2023-08-09T08:22:56.814Z,0.60
2023-08-09T08:23:56.813Z,0.60
2023-08-09T08:24:56.809Z,0.50
2023-08-09T08:25:56.968Z,0.40
2023-08-09T08:26:56.823Z,0.50
2023-08-09T08:27:56.781Z,0.40
2023-08-09T08:28:56.780Z,0.40
2023-08-09T08:29:56.772Z,0.40
2023-08-09T08:30:56.807Z,0.50
2023-08-09T08:31:56.950Z,0.40
2023-08-09T08:32:56.822Z,0.50
2023-08-09T08:33:56.747Z,0.40
2023-08-09T08:34:56.742Z,0.30
2023-08-09T08:36:08.580Z,0.60
2023-08-09T08:36:58.732Z,0.70
2023-08-09T08:37:56.716Z,0.50
2023-08-09T08:38:56.710Z,0.50
2023-08-09T08:39:56.704Z,0.50
2023-08-09T08:40:56.719Z,0.40
2023-08-09T08:41:56.688Z,0.40
2023-08-09T08:42:56.680Z,0.50
2023-08-09T08:43:56.669Z,0.40
2023-08-09T08:44:56.685Z,0.40
2023-08-09T08:45:56.707Z,0.40
2023-08-09T08:46:56.651Z,0.60
2023-08-09T08:47:56.654Z,0.50
2023-08-09T08:48:56.636Z,0.50
2023-08-09T08:49:56.685Z,0.40
2023-08-09T08:50:56.626Z,0.50
2023-08-09T08:51:56.613Z,0.80
2023-08-09T08:52:56.622Z,1.20
2023-08-09T08:53:56.616Z,0.60
2023-08-09T08:54:56.619Z,0.60
2023-08-09T08:55:56.595Z,0.60
2023-08-09T08:56:56.586Z,0.40
2023-08-09T08:57:56.584Z,0.30
2023-08-09T08:58:56.578Z,0.40
2023-08-09T08:59:56.668Z,0.60
2023-08-09T09:00:56.637Z,0.30
2023-08-09T09:01:56.552Z,0.50
2023-08-09T09:02:56.573Z,0.40
2023-08-09T09:03:56.620Z,0.70
2023-08-09T09:04:56.552Z,0.40
2023-08-09T09:05:56.533Z,0.50
2023-08-09T09:06:56.521Z,0.40
2023-08-09T09:07:56.512Z,0.50
2023-08-09T09:08:56.539Z,0.50
2023-08-09T09:09:56.497Z,0.50
2023-08-09T09:10:56.490Z,0.60
2023-08-09T09:11:56.483Z,0.40
2023-08-09T09:12:56.465Z,0.40
2023-08-09T09:13:57.838Z,0.40
2023-08-09T09:14:56.469Z,0.40
2023-08-09T09:15:56.486Z,0.40
2023-08-09T09:16:56.448Z,0.60
2023-08-09T09:17:56.745Z,0.90
2023-08-09T09:18:56.468Z,0.50
2023-08-09T09:19:56.437Z,0.50
2023-08-09T09:20:56.449Z,0.50
2023-08-09T09:21:56.415Z,0.60
2023-08-09T09:22:56.484Z,0.50
2023-08-09T09:23:56.423Z,0.50
2023-08-09T09:24:56.397Z,0.40
2023-08-09T09:25:56.388Z,0.30
2023-08-09T09:26:56.381Z,0.40
2023-08-09T09:27:56.665Z,0.40
2023-08-09T09:28:56.365Z,0.40
2023-08-09T09:29:56.363Z,0.50
2023-08-09T09:30:56.407Z,0.40
2023-08-09T09:31:56.371Z,0.50
2023-08-09T09:32:56.392Z,0.40
2023-08-09T09:33:56.337Z,0.50
2023-08-09T09:34:56.326Z,0.50
2023-08-09T09:35:57.180Z,0.50
2023-08-09T09:36:56.338Z,0.50
2023-08-09T09:37:56.302Z,0.50
2023-08-09T09:38:56.293Z,0.40
2023-08-09T09:39:56.735Z,0.40
2023-08-09T09:40:57.285Z,0.60
2023-08-09T09:41:57.271Z,0.60
2023-08-09T09:42:57.265Z,0.60
2023-08-09T09:43:56.274Z,1.20
2023-08-09T09:44:56.256Z,0.50
2023-08-09T09:45:56.271Z,0.50
2023-08-09T09:46:56.304Z,0.40
2023-08-09T09:47:57.615Z,0.60
2023-08-09T09:48:56.228Z,0.60
2023-08-09T09:49:56.221Z,0.40
2023-08-09T09:50:56.264Z,2.40
2023-08-09T09:51:56.206Z,1.50
2023-08-09T09:52:56.201Z,1.10
2023-08-09T09:53:56.191Z,0.80
2023-08-09T09:54:56.187Z,1.90
2023-08-09T09:55:56.198Z,0.40
2023-08-09T09:56:56.166Z,0.40
2023-08-09T09:57:56.159Z,0.40
2023-08-09T09:58:56.156Z,0.40
2023-08-09T09:59:56.141Z,0.60
2023-08-09T10:00:56.177Z,0.40
2023-08-09T10:01:56.142Z,0.40
2023-08-09T10:02:56.237Z,0.20
2023-08-09T10:03:56.115Z,0.50
2023-08-09T10:04:56.169Z,0.60
2023-08-09T10:05:56.142Z,0.40
2023-08-09T10:06:56.091Z,0.50
2023-08-09T10:07:59.629Z,0.30
2023-08-09T10:08:56.080Z,0.30
2023-08-09T10:09:56.104Z,0.40
2023-08-09T10:10:56.095Z,0.50
2023-08-09T10:11:56.058Z,0.40
2023-08-09T10:12:56.102Z,0.30
2023-08-09T10:13:56.053Z,0.50
2023-08-09T10:14:56.065Z,0.50
2023-08-09T10:15:56.019Z,0.40
2023-08-09T10:17:02.186Z,0.50
2023-08-09T10:17:58.009Z,0.40
2023-08-09T10:18:56.003Z,0.40
2023-08-09T10:19:56.019Z,0.60
2023-08-09T10:20:55.995Z,0.40
2023-08-09T10:21:55.977Z,0.30
2023-08-09T10:22:57.485Z,0.40
2023-08-09T10:23:56.993Z,0.40
2023-08-09T10:24:55.980Z,0.70
2023-08-09T10:25:55.978Z,0.60
2023-08-09T10:26:55.948Z,0.30
2023-08-09T10:27:55.931Z,0.50
2023-08-09T10:28:55.982Z,0.50
2023-08-09T10:29:55.937Z,0.40
2023-08-09T10:30:55.956Z,0.40
2023-08-09T10:31:56.115Z,0.40
2023-08-09T10:32:56.135Z,0.50
2023-08-09T10:33:55.931Z,0.40
2023-08-09T10:34:55.884Z,0.40
2023-08-09T10:35:55.899Z,0.40
2023-08-09T10:36:55.891Z,0.30
2023-08-09T10:37:55.891Z,0.40
2023-08-09T10:38:55.884Z,0.60
2023-08-09T10:39:55.848Z,0.50
2023-08-09T10:40:55.849Z,0.40
2023-08-09T10:41:55.879Z,0.40
2023-08-09T10:42:55.875Z,0.60
2023-08-09T10:43:55.825Z,0.70
2023-08-09T10:44:55.824Z,0.60
2023-08-09T10:45:55.839Z,0.60
2023-08-09T10:46:55.828Z,0.50
2023-08-09T10:47:55.829Z,0.60
2023-08-09T10:48:55.788Z,0.60
2023-08-09T10:49:55.815Z,0.60
2023-08-09T10:50:55.775Z,1.30
2023-08-09T10:51:55.764Z,0.60
2023-08-09T10:52:55.775Z,0.40
2023-08-09T10:53:55.745Z,0.50
2023-08-09T10:54:55.736Z,0.40
2023-08-09T10:55:55.737Z,0.60
2023-08-09T10:56:55.754Z,0.60
2023-08-09T10:57:55.803Z,0.50
2023-08-09T10:58:55.706Z,0.40
2023-08-09T10:59:55.783Z,0.50
2023-08-09T11:00:55.728Z,0.60
2023-08-09T11:01:55.712Z,0.60
2023-08-09T11:02:55.806Z,0.40
2023-08-09T11:03:55.751Z,1.20
2023-08-09T11:04:55.668Z,0.40
2023-08-09T11:05:55.657Z,0.50
2023-08-09T11:06:55.671Z,0.60
2023-08-09T11:07:55.636Z,0.60
2023-08-09T11:08:55.629Z,0.60
2023-08-09T11:09:55.639Z,1.80
2023-08-09T11:10:55.614Z,0.40
2023-08-09T11:11:55.634Z,0.40
2023-08-09T11:12:55.600Z,0.40
2023-08-09T11:13:56.682Z,0.30
2023-08-09T11:14:56.585Z,0.40
2023-08-09T11:15:55.582Z,0.30
2023-08-09T11:17:02.212Z,0.40
2023-08-09T11:17:57.623Z,0.50
2023-08-09T11:18:55.556Z,0.60
2023-08-09T11:19:55.544Z,0.40
2023-08-09T11:20:55.639Z,1.00
2023-08-09T11:21:56.467Z,1.00
2023-08-09T11:22:55.554Z,0.40
2023-08-09T11:23:55.526Z,0.40
2023-08-09T11:24:55.535Z,0.50
2023-08-09T11:25:55.557Z,0.50
2023-08-09T11:26:55.499Z,0.30
2023-08-09T11:27:55.499Z,0.40
2023-08-09T11:28:55.481Z,0.30
2023-08-09T11:29:55.474Z,0.40
2023-08-09T11:30:55.508Z,0.40
2023-08-09T11:31:55.464Z,0.30
2023-08-09T11:32:55.468Z,1.00
2023-08-09T11:33:55.433Z,1.50
2023-08-09T11:34:56.457Z,0.80
2023-08-09T11:35:55.450Z,0.70
2023-08-09T11:36:55.424Z,0.50
2023-08-09T11:37:55.413Z,0.60
2023-08-09T11:38:55.397Z,0.40
2023-08-09T11:39:55.448Z,0.50
2023-08-09T11:40:55.412Z,0.80
2023-08-09T11:41:55.446Z,0.50
2023-08-09T11:42:55.373Z,0.50
2023-08-09T11:43:55.370Z,0.60
2023-08-09T11:44:55.387Z,0.50
2023-08-09T11:45:55.992Z,0.50
2023-08-09T11:46:55.365Z,0.60
2023-08-09T11:47:55.362Z,0.70
2023-08-09T11:48:56.329Z,0.50
2023-08-09T11:49:55.354Z,0.60
2023-08-09T11:50:55.314Z,0.70
2023-08-09T11:51:55.321Z,0.50
2023-08-09T11:52:55.307Z,0.50
2023-08-09T11:53:55.320Z,0.50
2023-08-09T11:54:55.326Z,0.50
2023-08-09T11:55:55.284Z,0.40
2023-08-09T11:56:55.280Z,0.60
2023-08-09T11:57:55.266Z,0.40
2023-08-09T11:58:55.293Z,0.30
2023-08-09T12:00:03.584Z,0.40
2023-08-09T12:00:57.247Z,0.50
2023-08-09T12:01:55.269Z,1.00
2023-08-09T12:02:55.239Z,0.40
2023-08-09T12:03:55.347Z,0.40
2023-08-09T12:04:55.220Z,0.80
2023-08-09T12:05:56.852Z,0.50
2023-08-09T12:06:56.209Z,0.60
2023-08-09T12:07:55.219Z,0.50
2023-08-09T12:08:55.274Z,0.40
2023-08-09T12:09:55.183Z,0.60
2023-08-09T12:10:55.172Z,0.30
2023-08-09T12:11:55.171Z,0.60
2023-08-09T12:12:55.185Z,0.70
2023-08-09T12:13:55.148Z,0.90
2023-08-09T12:14:55.153Z,0.70
2023-08-09T12:15:55.163Z,0.40
2023-08-09T12:16:55.128Z,0.60
2023-08-09T12:17:55.187Z,0.60
2023-08-09T12:18:55.128Z,0.50
2023-08-09T12:19:55.120Z,0.70
2023-08-09T12:20:55.099Z,0.60
2023-08-09T12:21:55.145Z,0.70
2023-08-09T12:22:55.108Z,0.80
2023-08-09T12:23:55.080Z,0.50
2023-08-09T12:24:55.107Z,0.40
2023-08-09T12:25:55.058Z,0.40
2023-08-09T12:26:55.100Z,0.70
2023-08-09T12:27:55.066Z,0.50
2023-08-09T12:28:55.038Z,0.60
2023-08-09T12:29:55.042Z,0.50
2023-08-09T12:30:55.055Z,0.60
2023-08-09T12:31:55.063Z,0.80
2023-08-09T12:32:55.039Z,0.80
2023-08-09T12:33:54.994Z,1.00
2023-08-09T12:34:54.998Z,0.70
2023-08-09T12:35:54.978Z,0.70
2023-08-09T12:36:54.992Z,0.50
2023-08-09T12:37:54.964Z,0.50
2023-08-09T12:38:54.976Z,0.40
2023-08-09T12:39:54.952Z,0.40
2023-08-09T12:40:56.729Z,0.40
2023-08-09T12:41:54.958Z,0.40
2023-08-09T12:42:54.930Z,0.40
2023-08-09T12:43:54.915Z,0.40
2023-08-09T12:44:54.924Z,0.30
2023-08-09T12:45:54.975Z,0.40
2023-08-09T12:46:55.065Z,0.40
2023-08-09T12:47:54.940Z,0.40
2023-08-09T12:48:54.887Z,0.50
2023-08-09T12:49:54.873Z,0.40
2023-08-09T12:50:54.896Z,0.50
2023-08-09T12:51:54.887Z,0.40
2023-08-09T12:53:02.896Z,0.40
2023-08-09T12:53:56.848Z,0.50
2023-08-09T12:54:54.835Z,0.40
2023-08-09T12:55:54.854Z,0.40
2023-08-09T12:56:56.471Z,0.60
2023-08-09T12:57:54.818Z,1.10
2023-08-09T12:58:54.811Z,0.50
2023-08-09T12:59:54.821Z,0.40
2023-08-09T13:00:54.825Z,0.40
2023-08-09T13:01:54.866Z,0.40
2023-08-09T13:02:54.846Z,0.50
2023-08-09T13:03:54.774Z,0.50
2023-08-09T13:04:54.764Z,0.80
2023-08-09T13:05:54.778Z,0.50
2023-08-09T13:06:54.766Z,0.50
2023-08-09T13:07:54.743Z,0.50
2023-08-09T13:08:54.737Z,0.50
2023-08-09T13:09:56.534Z,0.80
2023-08-09T13:10:54.747Z,0.50
2023-08-09T13:11:54.712Z,0.50
2023-08-09T13:12:54.706Z,0.50
2023-08-09T13:13:54.707Z,0.60
2023-08-09T13:14:54.716Z,0.50
2023-08-09T13:15:54.759Z,0.50
2023-08-09T13:16:54.674Z,0.40
2023-08-09T13:17:54.857Z,0.50